Terminal Aerodrome Forecast
Issued by NWS Sioux Falls, SD

Home | Current Version | Previous Version | Graphics & Text | Print | Product List | Glossary On
Versions: 1 2 3 4 5 6 7 8 9 10 11 12 13 14
000
FTUS43 KFSD 222341
TAFHON
TAF
KHON 222341Z 2300/2324 17014G21KT P6SM SCT080 OVC250
     FM230200 18008KT P6SM OVC100
     FM230900 13007KT P6SM -SHRA OVC035
     FM231200 11010KT P6SM -SHRA OVC025
     FM231600 13011KT P6SM OVC025
     FM232100 14014KT P6SM OVC035=

USA.gov is the U.S. government's official web portal to all federal, state and local government web resources and services.